Time;durP1;ratioP1;P1;durP2;ratioP2;P2;SDS_P1;SDS_P2;PMS_P1;PMS_P2;Temp;Humidity;BMP_temperature;BMP_pressure;BME280_temperature;BME280_humidity;BME280_pressure;Samples;Min_cycle;Max_cycle;Signal;HPM_P1;HPM_P2
2021/03/31 00:00:51;;;;;;;;;;;;;;;9.18;63.55;101436.98;115348;1202;23239;-59
2021/03/31 00:03:19;;;;;;;;;;;;;;;9.15;63.46;101435.06;115495;1204;21611;-59
2021/03/31 00:05:48;;;;;;;;;;;;;;;9.15;63.59;101434.28;115459;1204;24757;-59
2021/03/31 00:08:15;;;;;;;;;;;;;;;9.14;63.37;101436.30;115334;1205;21603;-59
2021/03/31 00:10:44;;;;;;;;;;;;;;;9.10;63.75;101429.27;115316;1204;21668;-59
2021/03/31 00:13:12;;;;;;;;;;;;;;;9.05;63.52;101424.22;115386;1204;21608;-58
2021/03/31 00:15:40;;;;;;;;;;;;;;;9.04;63.76;101426.24;115469;1204;26276;-60
2021/03/31 00:18:09;;;;;;;;;;;;;;;9.05;63.92;101424.22;115330;1204;21601;-60
2021/03/31 00:20:37;;;;;;;;;;;;;;;9.05;63.80;101421.43;115319;1204;24346;-60
2021/03/31 00:23:05;;;;;;;;;;;;;;;9.03;63.86;101419.09;115307;1204;21600;-60
2021/03/31 00:25:33;;;;;;;;;;;;;;;9.02;63.99;101416.75;115316;1204;21679;-59
2021/03/31 00:28:01;;;;;;;;;;;;;;;9.00;63.88;101416.41;115353;1204;21672;-59
2021/03/31 00:30:30;;;;;;;;;;;;;;;8.96;63.83;101408.92;115340;1204;21600;-61
2021/03/31 00:32:58;;;;;;;;;;;;;;;8.91;63.81;101412.27;115429;1204;25786;-60
2021/03/31 00:35:26;;;;;;;;;;;;;;;8.88;64.38;101412.34;115305;1204;24834;-59
2021/03/31 00:37:54;;;;;;;;;;;;;;;8.79;64.31;101412.20;115237;1205;21600;-60
2021/03/31 00:40:22;;;;;;;;;;;;;;;8.74;64.43;101416.30;115352;1205;21601;-59
2021/03/31 00:42:50;;;;;;;;;;;;;;;8.73;64.59;101414.72;115385;1205;21612;-59
2021/03/31 00:45:18;;;;;;;;;;;;;;;8.70;64.64;101410.05;115215;1204;21591;-59
2021/03/31 00:47:46;;;;;;;;;;;;;;;8.68;64.61;101404.13;115596;1204;21748;-57
2021/03/31 00:50:18;;;;;;;;;;;;;;;8.66;64.51;101406.58;115296;1204;21607;-58
2021/03/31 00:52:47;;;;;;;;;;;;;;;8.66;64.60;101401.01;115583;1205;21830;-58
2021/03/31 00:55:17;;;;;;;;;;;;;;;8.61;64.79;101403.52;115367;1204;21598;-59
2021/03/31 00:57:45;;;;;;;;;;;;;;;8.55;64.90;101405.27;115466;1204;21604;-59
2021/03/31 01:00:14;;;;;;;;;;;;;;;8.49;64.84;101395.89;115375;1204;22063;-59
2021/03/31 01:02:42;;;;;;;;;;;;;;;8.49;64.85;101388.33;115423;1204;22029;-58
2021/03/31 01:05:12;;;;;;;;;;;;;;;8.45;64.92;101387.64;115361;1204;21607;-58
2021/03/31 01:07:41;;;;;;;;;;;;;;;8.39;64.94;101386.61;115539;1204;21621;-58
2021/03/31 01:10:10;;;;;;;;;;;;;;;8.38;65.00;101382.25;115468;1200;24311;-59
2021/03/31 01:12:47;;;;;;;;;;;;;;;8.35;65.03;101393.47;115649;1204;21627;-59
2021/03/31 01:15:18;;;;;;;;;;;;;;;8.29;65.15;101392.44;115363;1204;21710;-59
2021/03/31 01:17:50;;;;;;;;;;;;;;;8.24;65.14;101387.36;115326;1203;21672;-58
2021/03/31 01:20:33;;;;;;;;;;;;;;;8.20;65.26;101390.23;115369;1204;24665;-59
2021/03/31 01:23:18;;;;;;;;;;;;;;;8.17;65.12;101382.77;115504;1196;21679;-59
2021/03/31 01:25:48;;;;;;;;;;;;;;;8.12;65.31;101388.84;115217;1207;25113;-57
2021/03/31 01:28:30;;;;;;;;;;;;;;;8.09;65.24;101386.92;115195;1207;26754;-59
2021/03/31 01:31:03;;;;;;;;;;;;;;;8.05;65.17;101383.45;115188;1206;25155;-57
2021/03/31 01:33:43;;;;;;;;;;;;;;;8.03;65.30;101378.33;115310;1207;22835;-59
2021/03/31 01:36:12;;;;;;;;;;;;;;;8.02;65.18;101375.98;115233;1206;21682;-59
2021/03/31 01:38:42;;;;;;;;;;;;;;;8.03;65.21;101383.09;115181;1207;21770;-58
2021/03/31 01:41:11;;;;;;;;;;;;;;;8.02;65.41;101381.55;115150;1207;21681;-58
2021/03/31 01:43:39;;;;;;;;;;;;;;;8.00;65.33;101372.86;115353;1207;25850;-58
2021/03/31 01:46:07;;;;;;;;;;;;;;;7.98;65.37;101375.30;115208;1207;21682;-59
2021/03/31 01:48:36;;;;;;;;;;;;;;;7.93;65.34;101376.59;115275;1207;21673;-60
2021/03/31 01:51:06;;;;;;;;;;;;;;;7.92;65.56;101374.25;115327;1207;21649;-58
2021/03/31 01:53:34;;;;;;;;;;;;;;;7.91;65.36;101370.68;115252;1207;21617;-58
2021/03/31 01:56:04;;;;;;;;;;;;;;;7.90;65.55;101376.69;115297;1206;21672;-59
2021/03/31 01:58:34;;;;;;;;;;;;;;;7.89;65.61;101366.77;115224;1207;21757;-57
2021/03/31 02:01:02;;;;;;;;;;;;;;;7.86;65.50;101362.09;115167;1207;21614;-57
2021/03/31 02:03:31;;;;;;;;;;;;;;;7.87;65.70;101363.63;115288;1205;21814;-58
2021/03/31 02:06:00;;;;;;;;;;;;;;;7.84;65.61;101361.73;115379;1203;23200;-57
2021/03/31 02:08:28;;;;;;;;;;;;;;;7.80;65.67;101363.81;115590;1200;21675;-59
2021/03/31 02:10:57;;;;;;;;;;;;;;;7.76;66.01;101363.13;115436;1205;21860;-59
2021/03/31 02:13:25;;;;;;;;;;;;;;;7.67;66.25;101369.27;115455;1204;21607;-58
2021/03/31 02:15:57;;;;;;;;;;;;;;;7.60;66.39;101363.86;115560;1204;25952;-58
2021/03/31 02:18:26;;;;;;;;;;;;;;;7.58;66.50;101369.07;115484;1204;21601;-59
2021/03/31 02:20:54;;;;;;;;;;;;;;;7.54;66.17;101367.58;115551;1204;25956;-58
2021/03/31 02:23:23;;;;;;;;;;;;;;;7.52;66.17;101354.13;115427;1204;25959;-58
2021/03/31 02:25:51;;;;;;;;;;;;;;;7.55;66.27;101355.27;115474;1203;21608;-58
2021/03/31 02:28:19;;;;;;;;;;;;;;;7.56;66.39;101356.81;115403;1204;21659;-57
2021/03/31 02:30:47;;;;;;;;;;;;;;;7.54;66.40;101348.92;115464;1204;21599;-58
2021/03/31 02:33:16;;;;;;;;;;;;;;;7.54;66.43;101346.14;115557;1204;24346;-58
2021/03/31 02:35:44;;;;;;;;;;;;;;;7.50;66.69;101344.66;115549;1204;21644;-59
2021/03/31 02:38:13;;;;;;;;;;;;;;;7.45;66.78;101345.94;115552;1204;21678;-58
2021/03/31 02:40:44;;;;;;;;;;;;;;;7.41;66.78;101350.03;115474;1204;21604;-59
2021/03/31 02:43:14;;;;;;;;;;;;;;;7.34;66.82;101351.73;115492;1204;25017;-59
2021/03/31 02:45:42;;;;;;;;;;;;;;;7.32;66.73;101353.39;115499;1204;22050;-59
2021/03/31 02:48:13;;;;;;;;;;;;;;;7.32;66.71;101356.94;115497;1204;21636;-58
2021/03/31 02:50:41;;;;;;;;;;;;;;;7.32;66.87;101356.94;115603;1204;21743;-58
2021/03/31 02:53:11;;;;;;;;;;;;;;;7.28;66.89;101356.23;115615;1204;25861;-60
2021/03/31 02:55:39;;;;;;;;;;;;;;;7.25;67.00;101356.31;115553;1205;24346;-58
2021/03/31 02:58:09;;;;;;;;;;;;;;;7.22;66.99;101344.06;115369;1204;21608;-58
2021/03/31 03:00:36;;;;;;;;;;;;;;;7.20;66.72;101345.72;115515;1204;21625;-57
2021/03/31 03:03:05;;;;;;;;;;;;;;;7.19;66.91;101344.94;115398;1203;21776;-58
2021/03/31 03:05:35;;;;;;;;;;;;;;;7.16;66.90;101343.00;115491;1204;21767;-57
2021/03/31 03:08:04;;;;;;;;;;;;;;;7.16;66.81;101345.78;115481;1204;21607;-59
2021/03/31 03:10:32;;;;;;;;;;;;;;;7.16;66.86;101340.23;115449;1204;21601;-59
2021/03/31 03:13:02;;;;;;;;;;;;;;;7.16;66.92;101340.23;115534;1204;25962;-59
2021/03/31 03:15:30;;;;;;;;;;;;;;;7.17;66.95;101338.23;115471;1204;21662;-58
2021/03/31 03:17:58;;;;;;;;;;;;;;;7.17;66.91;101343.80;115512;1204;24316;-59
2021/03/31 03:20:27;;;;;;;;;;;;;;;7.15;66.70;101335.90;115438;1202;23290;-59
2021/03/31 03:22:56;;;;;;;;;;;;;;;7.13;66.75;101335.55;115450;1203;21759;-58
2021/03/31 03:25:25;;;;;;;;;;;;;;;7.09;66.99;101347.94;115380;1204;24370;-59
2021/03/31 03:27:53;;;;;;;;;;;;;;;7.05;67.04;101336.91;115396;1204;21711;-57
2021/03/31 03:30:22;;;;;;;;;;;;;;;7.04;67.17;101329.78;115396;1204;21704;-58
2021/03/31 03:32:51;;;;;;;;;;;;;;;7.03;67.08;101328.23;115770;1202;23128;-60
2021/03/31 03:35:21;;;;;;;;;;;;;;;7.02;67.11;101331.41;115517;1204;21675;-59
2021/03/31 03:37:50;;;;;;;;;;;;;;;7.01;67.10;101325.09;115497;1205;21600;-57
2021/03/31 03:40:18;;;;;;;;;;;;;;;7.00;67.12;101331.06;115375;1204;21672;-58
2021/03/31 03:42:46;;;;;;;;;;;;;;;6.99;67.22;101321.97;115413;1204;21656;-58
2021/03/31 03:45:15;;;;;;;;;;;;;;;6.97;67.22;101327.14;115443;1200;24214;-58
2021/03/31 03:47:43;;;;;;;;;;;;;;;6.95;67.62;101326.78;115592;1204;21671;-60
2021/03/31 03:50:12;;;;;;;;;;;;;;;6.90;67.76;101320.95;115491;1204;21697;-59
2021/03/31 03:52:39;;;;;;;;;;;;;;;6.85;67.68;101319.47;115452;1204;21676;-58
2021/03/31 03:55:09;;;;;;;;;;;;;;;6.84;67.30;101320.69;115389;1204;21608;-57
2021/03/31 03:57:36;;;;;;;;;;;;;;;6.84;67.41;101317.91;115466;1203;21608;-59
2021/03/31 04:00:12;;;;;;;;;;;;;;;6.83;67.44;101324.66;115482;1203;21671;-59
2021/03/31 04:02:39;;;;;;;;;;;;;;;6.82;67.47;101313.99;115565;1198;24668;-58
2021/03/31 04:05:08;;;;;;;;;;;;;;;6.81;67.44;101321.53;115421;1204;21776;-59
2021/03/31 04:07:36;;;;;;;;;;;;;;;6.80;67.50;101319.19;115482;1204;21617;-59
2021/03/31 04:10:04;;;;;;;;;;;;;;;6.79;67.54;101315.63;115455;1205;24538;-59
2021/03/31 04:12:33;;;;;;;;;;;;;;;6.77;67.50;101317.25;115607;1204;21607;-60
2021/03/31 04:15:02;;;;;;;;;;;;;;;6.76;67.45;101318.48;115526;1204;21828;-58
2021/03/31 04:17:30;;;;;;;;;;;;;;;6.71;67.76;101324.52;115558;1204;24811;-58
2021/03/31 04:19:58;;;;;;;;;;;;;;;6.67;67.86;101326.58;115607;1205;23115;-57
2021/03/31 04:22:27;;;;;;;;;;;;;;;6.65;67.79;101328.99;115403;1204;21603;-59
2021/03/31 04:24:55;;;;;;;;;;;;;;;6.60;67.75;101326.73;115586;1204;21974;-59
2021/03/31 04:27:23;;;;;;;;;;;;;;;6.56;67.63;101332.33;115552;1204;21588;-58
2021/03/31 04:29:51;;;;;;;;;;;;;;;6.54;67.78;101324.44;115577;1204;24436;-58
2021/03/31 04:32:20;;;;;;;;;;;;;;;6.52;67.82;101326.06;115433;1204;21669;-57
2021/03/31 04:34:48;;;;;;;;;;;;;;;6.48;67.72;101325.34;115481;1205;21739;-57
2021/03/31 04:37:16;;;;;;;;;;;;;;;6.47;67.71;101330.14;115422;1205;21757;-59
2021/03/31 04:39:44;;;;;;;;;;;;;;;6.48;67.78;101331.69;115452;1204;25815;-58
2021/03/31 04:42:12;;;;;;;;;;;;;;;6.48;67.80;101330.90;115397;1204;21726;-58
2021/03/31 04:44:40;;;;;;;;;;;;;;;6.47;67.81;101321.02;115487;1204;21607;-58
2021/03/31 04:47:08;;;;;;;;;;;;;;;6.47;67.74;101321.02;115397;1203;21601;-57
2021/03/31 04:49:35;;;;;;;;;;;;;;;6.46;67.77;101317.46;115377;1204;22050;-60
2021/03/31 04:52:04;;;;;;;;;;;;;;;6.47;67.84;101323.80;115446;1204;21604;-58
2021/03/31 04:54:32;;;;;;;;;;;;;;;6.45;68.06;101327.01;115479;1202;23196;-59
2021/03/31 04:57:00;;;;;;;;;;;;;;;6.45;68.06;101326.22;115348;1202;23201;-58
2021/03/31 04:59:27;;;;;;;;;;;;;;;6.45;67.86;101318.69;115344;1204;21608;-59
2021/03/31 05:01:56;;;;;;;;;;;;;;;6.44;68.53;101330.97;115344;1204;26068;-60
2021/03/31 05:04:23;;;;;;;;;;;;;;;6.40;68.79;101333.03;115335;1204;21836;-58
2021/03/31 05:06:52;;;;;;;;;;;;;;;6.36;68.76;101323.20;115528;1204;25815;-59
2021/03/31 05:09:19;;;;;;;;;;;;;;;6.37;68.42;101322.02;115572;1204;21607;-60
2021/03/31 05:11:47;;;;;;;;;;;;;;;6.38;68.42;101323.56;115296;1204;21572;-61
2021/03/31 05:14:15;;;;;;;;;;;;;;;6.40;68.51;101326.69;115235;1204;21604;-59
2021/03/31 05:16:42;;;;;;;;;;;;;;;6.39;69.26;101330.69;115383;1201;23046;-58
2021/03/31 05:19:10;;;;;;;;;;;;;;;6.38;68.79;101323.56;115289;1204;21811;-59
2021/03/31 05:21:37;;;;;;;;;;;;;;;6.40;68.95;101321.14;115401;1204;21600;-60
2021/03/31 05:24:07;;;;;;;;;;;;;;;6.42;68.96;101322.30;115268;1203;25829;-60
2021/03/31 05:26:34;;;;;;;;;;;;;;;6.46;69.25;101327.77;115318;1203;21686;-56
2021/03/31 05:29:02;;;;;;;;;;;;;;;6.49;69.17;101327.72;115266;1204;24732;-60
2021/03/31 05:31:30;;;;;;;;;;;;;;;6.55;69.51;101325.23;115230;1203;24316;-60
2021/03/31 05:33:58;;;;;;;;;;;;;;;6.60;69.46;101319.17;115134;1204;21630;-61
2021/03/31 05:36:26;;;;;;;;;;;;;;;6.64;69.52;101319.91;115159;1205;21604;-60
2021/03/31 05:38:53;;;;;;;;;;;;;;;6.69;69.93;101315.83;115112;1204;21608;-60
2021/03/31 05:41:21;;;;;;;;;;;;;;;6.73;70.08;101320.11;115188;1204;21615;-59
2021/03/31 05:43:49;;;;;;;;;;;;;;;6.77;70.34;101314.48;115371;1202;23151;-58
2021/03/31 05:46:17;;;;;;;;;;;;;;;6.82;70.47;101320.33;115137;1204;25790;-58
2021/03/31 05:48:44;;;;;;;;;;;;;;;6.86;70.52;101314.70;115315;1204;21595;-58
2021/03/31 05:51:12;;;;;;;;;;;;;;;6.93;70.66;101320.12;115293;1204;21600;-60
2021/03/31 05:53:40;;;;;;;;;;;;;;;6.97;70.96;101318.81;115142;1204;26071;-59
2021/03/31 05:56:08;;;;;;;;;;;;;;;7.03;71.04;101322.67;115190;1204;21605;-59
2021/03/31 05:58:37;;;;;;;;;;;;;;;7.09;71.07;101329.29;115343;1204;21601;-58
2021/03/31 06:01:05;;;;;;;;;;;;;;;7.15;70.99;101329.55;115092;1205;25136;-59
2021/03/31 06:03:33;;;;;;;;;;;;;;;7.22;71.54;101330.17;115143;1204;21672;-58
2021/03/31 06:06:01;;;;;;;;;;;;;;;7.33;71.93;101335.50;115106;1200;24373;-58
2021/03/31 06:08:29;;;;;;;;;;;;;;;7.40;71.29;101340.13;115081;1205;21601;-59
2021/03/31 06:11:00;;;;;;;;;;;;;;;7.48;71.54;101327.63;115137;1204;21608;-58
2021/03/31 06:13:44;;;;;;;;;;;;;;;7.57;72.06;101323.06;115209;1201;23073;-59
2021/03/31 06:16:25;;;;;;;;;;;;;;;7.67;71.90;101327.58;115354;1203;23138;-59
2021/03/31 06:18:54;;;;;;;;;;;;;;;7.75;71.73;101328.98;115222;1204;21604;-58
2021/03/31 06:21:22;;;;;;;;;;;;;;;7.84;71.72;101325.59;115183;1205;21874;-58
2021/03/31 06:23:56;;;;;;;;;;;;;;;7.94;71.67;101327.33;115189;1204;21751;-59
2021/03/31 06:26:26;;;;;;;;;;;;;;;8.02;71.36;101318.38;115277;1204;21644;-59
2021/03/31 06:28:55;;;;;;;;;;;;;;;8.11;71.41;101321.30;115343;1204;21604;-59
2021/03/31 06:31:27;;;;;;;;;;;;;;;8.19;71.28;101316.36;115248;1204;22056;-57
2021/03/31 06:33:56;;;;;;;;;;;;;;;8.27;71.40;101314.98;115075;1204;21576;-59
2021/03/31 06:36:34;;;;;;;;;;;;;;;8.40;71.62;101315.05;115573;1204;24725;-60
2021/03/31 06:39:19;;;;;;;;;;;;;;;8.54;71.39;101314.66;115286;1203;23200;-59
2021/03/31 06:41:51;;;;;;;;;;;;;;;8.64;71.18;101319.15;115517;1204;26332;-60
2021/03/31 06:44:29;;;;;;;;;;;;;;;8.74;71.35;101320.85;115132;1202;23239;-57
2021/03/31 06:47:03;;;;;;;;;;;;;;;8.81;71.03;101315.85;115295;1204;21732;-59
2021/03/31 06:49:32;;;;;;;;;;;;;;;8.90;70.94;101310.43;115155;1202;23323;-57
2021/03/31 06:52:05;;;;;;;;;;;;;;;9.01;70.92;101317.69;115185;1204;24318;-58
2021/03/31 06:54:41;;;;;;;;;;;;;;;9.08;70.74;101312.71;115262;1205;24468;-59
2021/03/31 06:57:09;;;;;;;;;;;;;;;9.21;70.90;101309.95;115154;1204;21743;-59
2021/03/31 06:59:37;;;;;;;;;;;;;;;9.34;70.74;101316.30;114985;1204;26847;-59
2021/03/31 07:02:06;;;;;;;;;;;;;;;9.49;70.46;101314.64;115020;1204;21604;-58
2021/03/31 07:04:35;;;;;;;;;;;;;;;9.66;69.94;101307.73;114982;1204;21600;-58
2021/03/31 07:07:07;;;;;;;;;;;;;;;9.78;69.32;101304.94;115126;1204;24315;-58
2021/03/31 07:09:36;;;;;;;;;;;;;;;9.92;69.49;101308.47;115045;1202;23392;-59
2021/03/31 07:12:17;;;;;;;;;;;;;;;10.02;69.63;101304.53;115149;1205;25901;-58
2021/03/31 07:14:47;;;;;;;;;;;;;;;10.12;69.70;101303.42;115248;1204;25959;-59
2021/03/31 07:17:21;;;;;;;;;;;;;;;10.25;69.56;101316.13;115128;1204;21644;-58
2021/03/31 07:19:49;;;;;;;;;;;;;;;10.39;69.34;101304.46;115543;1204;25955;-59
2021/03/31 07:22:17;;;;;;;;;;;;;;;10.58;69.13;101302.59;115925;1204;21740;-59
2021/03/31 07:24:46;;;;;;;;;;;;;;;10.72;69.00;101304.12;115415;1204;24319;-59
2021/03/31 07:27:15;;;;;;;;;;;;;;;10.84;68.82;101297.68;115122;1200;25017;-58
2021/03/31 07:30:05;;;;;;;;;;;;;;;11.04;68.50;101298.89;115361;1204;21600;-58
2021/03/31 07:32:36;;;;;;;;;;;;;;;11.22;68.14;101285.02;115210;1204;21600;-58
2021/03/31 07:35:07;;;;;;;;;;;;;;;11.31;67.81;101290.66;115177;1204;21601;-58
2021/03/31 07:37:42;;;;;;;;;;;;;;;11.46;67.62;101292.89;115170;1204;21601;-57
2021/03/31 07:40:14;;;;;;;;;;;;;;;11.57;67.48;101290.43;115037;1205;21600;-60
2021/03/31 07:43:15;;;;;;;;;;;;;;;11.70;66.83;101286.33;115156;1204;21601;-58
2021/03/31 07:46:02;;;;;;;;;;;;;;;11.89;66.28;101279.55;115268;1204;22323;-58
2021/03/31 07:48:33;;;;;;;;;;;;;;;12.04;66.02;101279.73;116972;1202;23204;-58
2021/03/31 07:51:14;;;;;;;;;;;;;;;12.12;66.09;101287.33;115085;1205;21607;-58
2021/03/31 07:53:44;;;;;;;;;;;;;;;12.23;65.68;101274.92;115218;1205;22352;-57
2021/03/31 07:56:27;;;;;;;;;;;;;;;12.36;65.14;101276.32;115200;1204;21608;-58
2021/03/31 07:59:12;;;;;;;;;;;;;;;12.53;65.32;101283.17;115219;1204;25529;-58
2021/03/31 08:01:42;;;;;;;;;;;;;;;12.60;65.02;101271.63;114862;1204;21600;-58
2021/03/31 08:04:10;;;;;;;;;;;;;;;12.68;64.76;101280.52;115068;1205;21611;-58
2021/03/31 08:06:39;;;;;;;;;;;;;;;12.80;64.92;101276.77;115096;1205;21682;-58
2021/03/31 08:09:08;;;;;;;;;;;;;;;12.95;64.95;101274.88;115126;1204;21772;-58
2021/03/31 08:11:47;;;;;;;;;;;;;;;13.15;64.12;101271.56;115006;1205;26080;-57
2021/03/31 08:14:19;;;;;;;;;;;;;;;13.22;63.63;101266.39;115437;1204;21600;-57
2021/03/31 08:16:49;;;;;;;;;;;;;;;13.31;63.42;101277.58;115118;1203;21600;-59
2021/03/31 08:19:19;;;;;;;;;;;;;;;13.44;63.06;101266.16;114992;1204;21703;-59
2021/03/31 08:21:48;;;;;;;;;;;;;;;13.59;63.22;101267.03;115250;1204;21607;-58
2021/03/31 08:24:17;;;;;;;;;;;;;;;13.70;62.57;101265.24;115671;1200;21678;-60
2021/03/31 08:26:46;;;;;;;;;;;;;;;13.77;62.42;101267.71;115164;1204;25813;-58
2021/03/31 08:29:28;;;;;;;;;;;;;;;13.82;62.39;101265.50;115037;1204;21744;-58
2021/03/31 08:31:57;;;;;;;;;;;;;;;13.89;61.91;101263.11;115085;1205;21600;-57
2021/03/31 08:34:35;;;;;;;;;;;;;;;14.03;62.39;101261.63;115187;1204;21611;-58
2021/03/31 08:37:04;;;;;;;;;;;;;;;14.12;61.43;101253.13;115330;1204;21604;-57
2021/03/31 08:39:33;;;;;;;;;;;;;;;14.26;60.98;101241.16;115387;1204;21618;-59
2021/03/31 08:42:05;;;;;;;;;;;;;;;14.47;60.66;101240.85;115282;1203;21679;-58
2021/03/31 08:44:38;;;;;;;;;;;;;;;14.61;59.74;101233.69;115181;1204;21704;-56
2021/03/31 08:47:10;;;;;;;;;;;;;;;14.81;59.66;101230.22;115165;1200;23295;-58
2021/03/31 08:49:39;;;;;;;;;;;;;;;14.91;59.41;101232.45;115073;1204;21704;-58
2021/03/31 08:52:08;;;;;;;;;;;;;;;15.03;59.30;101239.81;115111;1204;21608;-58
2021/03/31 08:54:38;;;;;;;;;;;;;;;15.22;59.11;101229.91;115016;1205;21600;-62
2021/03/31 08:57:07;;;;;;;;;;;;;;;15.40;58.99;101226.85;115136;1205;22379;-58
2021/03/31 08:59:36;;;;;;;;;;;;;;;15.55;58.74;101221.22;115339;1197;24167;-59
2021/03/31 09:02:04;;;;;;;;;;;;;;;15.73;58.56;101220.17;115239;1204;25962;-58
2021/03/31 09:04:32;;;;;;;;;;;;;;;15.89;57.93;101225.27;115025;1205;25148;-57
2021/03/31 09:07:01;;;;;;;;;;;;;;;16.06;57.41;101214.97;115131;1204;21700;-58
2021/03/31 09:09:32;;;;;;;;;;;;;;;16.18;57.37;101216.64;115221;1204;21669;-58
2021/03/31 09:12:01;;;;;;;;;;;;;;;16.27;56.55;101210.09;115353;1204;21669;-58
2021/03/31 09:14:29;;;;;;;;;;;;;;;16.37;56.17;101212.26;114981;1204;21646;-59
2021/03/31 09:16:58;;;;;;;;;;;;;;;16.48;55.46;101203.93;115175;1204;21608;-59
2021/03/31 09:19:30;;;;;;;;;;;;;;;16.61;55.63;101209.22;115363;1203;21600;-58
2021/03/31 09:21:58;;;;;;;;;;;;;;;16.75;54.37;101199.86;116470;1204;21607;-58
2021/03/31 09:24:27;;;;;;;;;;;;;;;16.92;54.24;101212.07;115046;1205;21589;-58
2021/03/31 09:26:56;;;;;;;;;;;;;;;17.02;54.89;101207.79;115597;1200;22726;-59
2021/03/31 09:29:24;;;;;;;;;;;;;;;17.14;53.75;101200.17;117935;1204;22064;-59
2021/03/31 09:31:52;;;;;;;;;;;;;;;17.19;52.87;101203.06;115032;1204;21624;-60
2021/03/31 09:34:21;;;;;;;;;;;;;;;17.30;52.50;101196.72;115761;1204;21851;-60
2021/03/31 09:37:02;;;;;;;;;;;;;;;17.45;52.69;101191.67;115175;1204;21668;-60
2021/03/31 09:39:40;;;;;;;;;;;;;;;17.58;51.28;101190.00;115410;1204;21601;-61
2021/03/31 09:42:09;;;;;;;;;;;;;;;17.71;50.91;101190.30;115222;1204;27021;-59
2021/03/31 09:44:37;;;;;;;;;;;;;;;17.84;51.02;101189.86;115183;1205;21608;-59
2021/03/31 09:47:05;;;;;;;;;;;;;;;17.92;50.24;101185.27;115121;1204;26834;-59
2021/03/31 09:49:33;;;;;;;;;;;;;;;17.99;50.11;101190.44;115184;1200;26071;-59
2021/03/31 09:52:05;;;;;;;;;;;;;;;18.09;49.83;101180.45;115401;1204;21669;-59
2021/03/31 09:54:33;;;;;;;;;;;;;;;18.17;49.49;101186.38;115252;1205;21772;-59
2021/03/31 09:57:01;;;;;;;;;;;;;;;18.28;49.73;101181.55;115244;1204;21600;-58
2021/03/31 09:59:30;;;;;;;;;;;;;;;18.34;49.23;101176.67;115105;1204;25094;-58
2021/03/31 10:01:59;;;;;;;;;;;;;;;18.36;49.08;101181.81;115228;1204;21831;-59
2021/03/31 10:04:28;;;;;;;;;;;;;;;18.40;48.69;101174.63;115008;1204;21601;-59
2021/03/31 10:07:10;;;;;;;;;;;;;;;18.50;48.15;101170.30;115184;1204;22440;-60
2021/03/31 10:09:40;;;;;;;;;;;;;;;18.57;48.16;101169.03;115211;1204;21608;-58
2021/03/31 10:12:09;;;;;;;;;;;;;;;18.62;47.69;101167.50;115149;1204;21604;-66
2021/03/31 10:14:46;;;;;;;;;;;;;;;18.69;47.65;101170.58;115214;1205;22435;-60
2021/03/31 10:17:15;;;;;;;;;;;;;;;18.79;47.46;101159.80;115092;1205;24347;-59
2021/03/31 10:19:43;;;;;;;;;;;;;;;18.84;47.68;101159.02;115299;1205;21669;-59
2021/03/31 10:22:13;;;;;;;;;;;;;;;18.88;47.57;101153.86;115303;1204;21601;-60
2021/03/31 10:24:42;;;;;;;;;;;;;;;18.94;46.97;101151.80;115256;1203;23003;-59
2021/03/31 10:27:10;;;;;;;;;;;;;;;19.00;46.58;101144.08;115100;1203;21693;-59
2021/03/31 10:29:45;;;;;;;;;;;;;;;19.11;45.88;101144.08;115097;1203;21668;-60
2021/03/31 10:32:16;;;;;;;;;;;;;;;19.20;45.68;101140.98;115061;1205;21608;-60
2021/03/31 10:34:46;;;;;;;;;;;;;;;19.28;45.51;101142.74;115430;1204;22848;-60
2021/03/31 10:37:22;;;;;;;;;;;;;;;19.29;45.37;101130.14;115118;1205;21600;-59
2021/03/31 10:51:21;;;;;;;;;;;;;;;19.50;44.03;101124.96;114889;1207;21608;-60
2021/03/31 10:54:01;;;;;;;;;;;;;;;19.61;44.08;101119.27;115039;1205;23079;-60
2021/03/31 10:56:31;;;;;;;;;;;;;;;19.66;44.52;101114.84;115152;1207;21675;-60
2021/03/31 10:58:59;;;;;;;;;;;;;;;19.66;43.58;101120.52;115419;1207;21611;-61
2021/03/31 11:01:28;;;;;;;;;;;;;;;19.72;43.79;101119.20;115110;1207;21614;-61
2021/03/31 11:03:57;;;;;;;;;;;;;;;19.81;42.57;101116.08;115153;1203;23010;-61
2021/03/31 11:06:28;;;;;;;;;;;;;;;19.83;41.77;101116.33;114911;1207;21606;-60
2021/03/31 11:08:58;;;;;;;;;;;;;;;19.86;42.31;101106.77;115050;1206;21746;-60
2021/03/31 11:11:27;;;;;;;;;;;;;;;19.83;42.02;101101.38;114804;1207;21698;-60
2021/03/31 11:13:54;;;;;;;;;;;;;;;19.86;41.94;101100.35;115222;1207;21931;-60
2021/03/31 11:16:25;;;;;;;;;;;;;;;19.86;42.03;101103.19;114844;1206;21590;-58
2021/03/31 11:18:58;;;;;;;;;;;;;;;19.88;42.48;101095.70;114941;1207;24510;-59
2021/03/31 11:27:07;;;;;;;;;;;;;;;20.12;40.92;101078.80;114534;1209;21616;-60
2021/03/31 11:29:35;;;;;;;;;;;;;;;20.17;40.77;101077.98;115011;1208;24376;-60
2021/03/31 11:32:04;;;;;;;;;;;;;;;20.17;40.35;101085.73;114949;1207;26033;-61
2021/03/31 11:34:32;;;;;;;;;;;;;;;20.23;40.55;101077.99;114849;1207;21604;-59
2021/03/31 11:37:00;;;;;;;;;;;;;;;20.29;40.92;101072.27;114740;1207;24835;-59
2021/03/31 11:39:28;;;;;;;;;;;;;;;20.39;40.26;101077.09;114905;1207;23500;-59
2021/03/31 11:41:56;;;;;;;;;;;;;;;20.48;40.53;101078.83;114808;1207;22664;-60
2021/03/31 11:44:24;;;;;;;;;;;;;;;20.52;40.34;101060.23;115004;1203;23359;-60
2021/03/31 11:46:52;;;;;;;;;;;;;;;20.53;40.20;101060.98;115095;1207;21610;-59
2021/03/31 11:49:20;;;;;;;;;;;;;;;20.51;40.12;101057.91;114937;1207;21650;-59
2021/03/31 11:51:51;;;;;;;;;;;;;;;20.56;40.00;101051.42;114843;1207;24296;-60
2021/03/31 11:54:20;;;;;;;;;;;;;;;20.56;39.35;101046.53;115165;1206;21682;-60
2021/03/31 11:56:49;;;;;;;;;;;;;;;20.51;39.13;101047.33;114942;1207;21618;-59
2021/03/31 11:59:17;;;;;;;;;;;;;;;20.54;39.71;101045.51;114884;1207;21685;-59
2021/03/31 12:01:45;;;;;;;;;;;;;;;20.57;39.93;101042.38;114810;1207;21614;-65
2021/03/31 12:04:13;;;;;;;;;;;;;;;20.63;39.20;101033.84;117758;1204;21612;-60
2021/03/31 12:06:42;;;;;;;;;;;;;;;20.67;39.12;101034.31;115083;1205;21691;-60
2021/03/31 12:09:10;;;;;;;;;;;;;;;20.71;38.62;101038.37;115072;1205;21740;-59
2021/03/31 12:11:42;;;;;;;;;;;;;;;20.71;38.45;101026.27;115111;1199;25851;-59
2021/03/31 12:14:11;;;;;;;;;;;;;;;20.77;38.31;101021.31;115430;1204;21624;-60
2021/03/31 12:16:39;;;;;;;;;;;;;;;20.83;37.72;101024.85;115042;1204;24318;-59
2021/03/31 12:19:07;;;;;;;;;;;;;;;20.80;37.89;101015.33;115077;1204;25132;-59
2021/03/31 12:21:35;;;;;;;;;;;;;;;20.86;37.37;101021.71;115293;1204;21604;-60
2021/03/31 12:24:04;;;;;;;;;;;;;;;20.87;37.32;101011.13;115464;1204;21643;-60
2021/03/31 12:26:32;;;;;;;;;;;;;;;20.86;37.38;101007.52;115142;1200;25831;-60
2021/03/31 12:29:00;;;;;;;;;;;;;;;20.88;36.94;101004.92;115210;1204;21878;-60
2021/03/31 12:31:28;;;;;;;;;;;;;;;20.92;36.80;101002.55;115747;1203;21739;-61
2021/03/31 12:33:57;;;;;;;;;;;;;;;20.96;37.07;100993.73;115564;1204;24327;-61
2021/03/31 12:36:26;;;;;;;;;;;;;;;20.98;37.05;100988.31;115304;1197;27103;-61
2021/03/31 12:38:55;;;;;;;;;;;;;;;21.00;36.91;100979.25;115191;1204;21670;-61
2021/03/31 12:41:23;;;;;;;;;;;;;;;21.04;36.73;100977.69;115247;1204;21625;-61
2021/03/31 12:43:50;;;;;;;;;;;;;;;21.06;37.11;100979.98;115267;1205;25822;-60
2021/03/31 12:46:19;;;;;;;;;;;;;;;21.06;36.88;100980.76;115151;1204;21612;-62
2021/03/31 12:48:47;;;;;;;;;;;;;;;21.07;36.50;100970.15;115114;1203;22974;-60
2021/03/31 12:51:20;;;;;;;;;;;;;;;21.06;36.09;100965.79;115615;1204;22376;-61
2021/03/31 12:53:52;;;;;;;;;;;;;;;21.09;36.39;100959.80;115152;1205;24318;-60
2021/03/31 12:56:21;;;;;;;;;;;;;;;21.13;36.20;100957.42;115544;1204;21740;-60
2021/03/31 12:58:49;;;;;;;;;;;;;;;21.13;35.85;100951.75;115197;1204;21626;-60
2021/03/31 13:01:22;;;;;;;;;;;;;;;21.12;35.73;100952.29;115135;1204;21624;-59
2021/03/31 13:03:50;;;;;;;;;;;;;;;21.09;35.75;100947.67;115100;1204;21670;-60